sensor_id;sensor_type;location;lat;lon;timestamp;P1;durP1;ratioP1;P2;durP2;ratioP2
38581;SDS011;24349;53.720;10.014;2022-07-12T00:01:56;4.72;;;3.17;;
38581;SDS011;24349;53.720;10.014;2022-07-12T00:04:23;5.22;;;3.38;;
38581;SDS011;24349;53.720;10.014;2022-07-12T00:06:49;5.97;;;3.13;;
38581;SDS011;24349;53.720;10.014;2022-07-12T00:09:14;5.10;;;3.25;;
38581;SDS011;24349;53.720;10.014;2022-07-12T00:11:40;5.25;;;2.40;;
38581;SDS011;24349;53.720;10.014;2022-07-12T00:14:07;4.65;;;3.03;;
38581;SDS011;24349;53.720;10.014;2022-07-12T00:16:33;5.80;;;2.97;;
38581;SDS011;24349;53.720;10.014;2022-07-12T00:18:59;5.72;;;3.25;;
38581;SDS011;24349;53.720;10.014;2022-07-12T00:21:24;4.93;;;2.90;;
38581;SDS011;24349;53.720;10.014;2022-07-12T00:23:50;5.93;;;2.90;;
38581;SDS011;24349;53.720;10.014;2022-07-12T00:26:16;5.53;;;3.63;;
38581;SDS011;24349;53.720;10.014;2022-07-12T00:28:41;6.15;;;3.28;;
38581;SDS011;24349;53.720;10.014;2022-07-12T00:31:07;4.50;;;2.95;;
38581;SDS011;24349;53.720;10.014;2022-07-12T00:33:33;5.00;;;2.65;;
38581;SDS011;24349;53.720;10.014;2022-07-12T00:35:59;5.50;;;3.00;;
38581;SDS011;24349;53.720;10.014;2022-07-12T00:38:24;4.65;;;2.90;;
38581;SDS011;24349;53.720;10.014;2022-07-12T00:40:50;6.18;;;3.20;;
38581;SDS011;24349;53.720;10.014;2022-07-12T00:43:16;5.22;;;3.10;;
38581;SDS011;24349;53.720;10.014;2022-07-12T00:45:41;4.97;;;3.40;;
38581;SDS011;24349;53.720;10.014;2022-07-12T00:48:07;4.75;;;2.72;;
38581;SDS011;24349;53.720;10.014;2022-07-12T00:50:34;5.53;;;3.22;;
38581;SDS011;24349;53.720;10.014;2022-07-12T00:52:59;3.80;;;2.20;;
38581;SDS011;24349;53.720;10.014;2022-07-12T00:55:25;3.40;;;2.00;;
38581;SDS011;24349;53.720;10.014;2022-07-12T00:57:51;3.80;;;2.10;;
38581;SDS011;24349;53.720;10.014;2022-07-12T01:00:23;4.18;;;2.30;;
38581;SDS011;24349;53.720;10.014;2022-07-12T01:02:50;4.15;;;2.03;;
38581;SDS011;24349;53.720;10.014;2022-07-12T01:05:20;5.47;;;2.50;;
38581;SDS011;24349;53.720;10.014;2022-07-12T01:07:46;3.95;;;2.10;;
38581;SDS011;24349;53.720;10.014;2022-07-12T01:10:13;3.70;;;2.10;;
38581;SDS011;24349;53.720;10.014;2022-07-12T01:12:38;4.20;;;2.50;;
38581;SDS011;24349;53.720;10.014;2022-07-12T01:15:05;4.93;;;2.45;;
38581;SDS011;24349;53.720;10.014;2022-07-12T01:17:31;5.22;;;2.38;;
38581;SDS011;24349;53.720;10.014;2022-07-12T01:19:58;3.50;;;1.80;;
38581;SDS011;24349;53.720;10.014;2022-07-12T01:22:29;3.75;;;2.20;;
38581;SDS011;24349;53.720;10.014;2022-07-12T01:24:57;4.55;;;2.95;;
38581;SDS011;24349;53.720;10.014;2022-07-12T01:27:24;4.38;;;2.40;;
38581;SDS011;24349;53.720;10.014;2022-07-12T01:29:49;4.18;;;2.35;;
38581;SDS011;24349;53.720;10.014;2022-07-12T01:32:15;3.97;;;2.10;;
38581;SDS011;24349;53.720;10.014;2022-07-12T01:34:51;4.93;;;2.38;;
38581;SDS011;24349;53.720;10.014;2022-07-12T01:37:19;3.63;;;1.98;;
38581;SDS011;24349;53.720;10.014;2022-07-12T01:39:46;3.67;;;1.90;;
38581;SDS011;24349;53.720;10.014;2022-07-12T01:42:13;5.28;;;2.50;;
38581;SDS011;24349;53.720;10.014;2022-07-12T01:44:39;4.30;;;2.50;;
38581;SDS011;24349;53.720;10.014;2022-07-12T01:47:06;4.40;;;2.22;;
38581;SDS011;24349;53.720;10.014;2022-07-12T01:49:31;5.40;;;3.03;;
38581;SDS011;24349;53.720;10.014;2022-07-12T01:51:57;15.35;;;3.70;;
38581;SDS011;24349;53.720;10.014;2022-07-12T01:54:24;4.10;;;2.30;;
38581;SDS011;24349;53.720;10.014;2022-07-12T01:56:51;3.97;;;2.03;;
38581;SDS011;24349;53.720;10.014;2022-07-12T01:59:18;4.03;;;1.98;;
38581;SDS011;24349;53.720;10.014;2022-07-12T02:01:45;3.63;;;1.80;;
38581;SDS011;24349;53.720;10.014;2022-07-12T02:04:11;3.63;;;1.80;;
38581;SDS011;24349;53.720;10.014;2022-07-12T02:06:37;3.70;;;2.10;;
38581;SDS011;24349;53.720;10.014;2022-07-12T02:09:04;31.65;;;2.60;;
38581;SDS011;24349;53.720;10.014;2022-07-12T02:11:30;3.40;;;1.40;;
38581;SDS011;24349;53.720;10.014;2022-07-12T02:13:56;2.55;;;1.30;;
38581;SDS011;24349;53.720;10.014;2022-07-12T02:16:22;2.80;;;1.48;;
38581;SDS011;24349;53.720;10.014;2022-07-12T02:18:48;2.88;;;1.52;;
38581;SDS011;24349;53.720;10.014;2022-07-12T02:21:13;2.50;;;1.27;;
38581;SDS011;24349;53.720;10.014;2022-07-12T02:23:39;2.15;;;1.17;;
38581;SDS011;24349;53.720;10.014;2022-07-12T02:26:05;2.55;;;1.20;;
38581;SDS011;24349;53.720;10.014;2022-07-12T02:28:30;2.58;;;1.15;;
38581;SDS011;24349;53.720;10.014;2022-07-12T02:30:56;2.03;;;1.10;;
38581;SDS011;24349;53.720;10.014;2022-07-12T02:33:22;2.20;;;1.20;;
38581;SDS011;24349;53.720;10.014;2022-07-12T02:35:49;2.67;;;1.40;;
38581;SDS011;24349;53.720;10.014;2022-07-12T02:38:15;3.15;;;1.40;;
38581;SDS011;24349;53.720;10.014;2022-07-12T02:40:41;3.30;;;1.52;;
38581;SDS011;24349;53.720;10.014;2022-07-12T02:43:28;3.30;;;1.80;;
38581;SDS011;24349;53.720;10.014;2022-07-12T02:46:06;4.82;;;1.90;;
38581;SDS011;24349;53.720;10.014;2022-07-12T02:48:36;3.22;;;1.83;;
38581;SDS011;24349;53.720;10.014;2022-07-12T02:51:03;3.75;;;1.80;;
38581;SDS011;24349;53.720;10.014;2022-07-12T02:53:29;3.15;;;1.60;;
38581;SDS011;24349;53.720;10.014;2022-07-12T02:55:55;14.43;;;2.22;;
38581;SDS011;24349;53.720;10.014;2022-07-12T02:58:21;7.15;;;1.92;;
38581;SDS011;24349;53.720;10.014;2022-07-12T03:00:47;2.95;;;1.52;;
38581;SDS011;24349;53.720;10.014;2022-07-12T03:03:13;50.28;;;3.00;;
38581;SDS011;24349;53.720;10.014;2022-07-12T03:05:39;11.68;;;2.00;;
38581;SDS011;24349;53.720;10.014;2022-07-12T03:08:06;3.42;;;1.63;;
38581;SDS011;24349;53.720;10.014;2022-07-12T03:10:33;3.17;;;1.50;;
38581;SDS011;24349;53.720;10.014;2022-07-12T03:12:59;3.42;;;2.00;;
38581;SDS011;24349;53.720;10.014;2022-07-12T03:15:24;3.97;;;2.22;;
38581;SDS011;24349;53.720;10.014;2022-07-12T03:17:50;4.43;;;2.33;;
38581;SDS011;24349;53.720;10.014;2022-07-12T03:20:16;4.47;;;2.72;;
38581;SDS011;24349;53.720;10.014;2022-07-12T03:22:42;4.60;;;2.40;;
38581;SDS011;24349;53.720;10.014;2022-07-12T03:25:09;3.92;;;2.00;;
38581;SDS011;24349;53.720;10.014;2022-07-12T03:27:35;5.22;;;2.35;;
38581;SDS011;24349;53.720;10.014;2022-07-12T03:30:00;3.92;;;2.03;;
38581;SDS011;24349;53.720;10.014;2022-07-12T03:32:26;5.05;;;2.90;;
38581;SDS011;24349;53.720;10.014;2022-07-12T03:34:52;4.95;;;2.80;;
38581;SDS011;24349;53.720;10.014;2022-07-12T03:37:18;6.78;;;3.70;;
38581;SDS011;24349;53.720;10.014;2022-07-12T03:39:43;7.50;;;4.63;;
38581;SDS011;24349;53.720;10.014;2022-07-12T03:42:09;7.25;;;5.28;;
38581;SDS011;24349;53.720;10.014;2022-07-12T03:44:37;7.05;;;4.07;;
38581;SDS011;24349;53.720;10.014;2022-07-12T03:47:03;7.15;;;4.93;;
38581;SDS011;24349;53.720;10.014;2022-07-12T03:49:30;10.20;;;6.45;;
38581;SDS011;24349;53.720;10.014;2022-07-12T03:51:56;7.82;;;5.50;;
38581;SDS011;24349;53.720;10.014;2022-07-12T03:54:21;6.80;;;4.35;;
38581;SDS011;24349;53.720;10.014;2022-07-12T03:56:47;6.55;;;4.82;;
38581;SDS011;24349;53.720;10.014;2022-07-12T03:59:31;6.88;;;4.82;;
38581;SDS011;24349;53.720;10.014;2022-07-12T04:01:57;8.15;;;4.93;;
38581;SDS011;24349;53.720;10.014;2022-07-12T04:04:23;6.80;;;4.97;;
38581;SDS011;24349;53.720;10.014;2022-07-12T04:06:49;7.47;;;5.00;;
38581;SDS011;24349;53.720;10.014;2022-07-12T04:09:14;6.88;;;4.35;;
38581;SDS011;24349;53.720;10.014;2022-07-12T04:11:40;6.40;;;4.72;;
38581;SDS011;24349;53.720;10.014;2022-07-12T04:14:06;7.68;;;5.20;;
38581;SDS011;24349;53.720;10.014;2022-07-12T04:16:32;8.18;;;5.45;;
38581;SDS011;24349;53.720;10.014;2022-07-12T04:18:58;6.68;;;4.93;;
38581;SDS011;24349;53.720;10.014;2022-07-12T04:21:23;6.75;;;4.32;;
38581;SDS011;24349;53.720;10.014;2022-07-12T04:23:49;7.30;;;4.72;;
38581;SDS011;24349;53.720;10.014;2022-07-12T04:26:15;6.47;;;4.97;;
38581;SDS011;24349;53.720;10.014;2022-07-12T04:28:41;6.68;;;4.40;;
38581;SDS011;24349;53.720;10.014;2022-07-12T04:31:06;7.57;;;5.65;;
38581;SDS011;24349;53.720;10.014;2022-07-12T04:33:32;7.15;;;4.57;;
38581;SDS011;24349;53.720;10.014;2022-07-12T04:35:58;8.35;;;5.97;;
38581;SDS011;24349;53.720;10.014;2022-07-12T04:38:25;6.95;;;5.30;;
38581;SDS011;24349;53.720;10.014;2022-07-12T04:40:50;8.63;;;6.50;;
38581;SDS011;24349;53.720;10.014;2022-07-12T04:43:16;8.73;;;6.15;;
38581;SDS011;24349;53.720;10.014;2022-07-12T04:45:42;7.53;;;5.47;;
38581;SDS011;24349;53.720;10.014;2022-07-12T04:48:11;7.70;;;4.93;;
38581;SDS011;24349;53.720;10.014;2022-07-12T04:50:38;7.53;;;5.25;;
38581;SDS011;24349;53.720;10.014;2022-07-12T04:53:04;8.60;;;5.47;;
38581;SDS011;24349;53.720;10.014;2022-07-12T04:55:30;8.73;;;6.47;;
38581;SDS011;24349;53.720;10.014;2022-07-12T04:57:55;7.05;;;4.75;;
38581;SDS011;24349;53.720;10.014;2022-07-12T05:00:21;7.95;;;5.65;;
38581;SDS011;24349;53.720;10.014;2022-07-12T05:02:49;8.25;;;5.60;;
38581;SDS011;24349;53.720;10.014;2022-07-12T05:05:14;7.18;;;5.20;;
38581;SDS011;24349;53.720;10.014;2022-07-12T05:07:41;7.72;;;6.13;;
38581;SDS011;24349;53.720;10.014;2022-07-12T05:10:08;7.78;;;5.85;;
38581;SDS011;24349;53.720;10.014;2022-07-12T05:12:34;13.20;;;5.88;;
38581;SDS011;24349;53.720;10.014;2022-07-12T05:15:00;9.00;;;7.65;;
38581;SDS011;24349;53.720;10.014;2022-07-12T05:17:26;11.05;;;7.43;;
38581;SDS011;24349;53.720;10.014;2022-07-12T05:19:52;9.85;;;7.95;;
38581;SDS011;24349;53.720;10.014;2022-07-12T05:22:17;10.10;;;8.15;;
38581;SDS011;24349;53.720;10.014;2022-07-12T05:24:43;9.05;;;6.78;;
38581;SDS011;24349;53.720;10.014;2022-07-12T05:27:08;10.90;;;9.02;;
38581;SDS011;24349;53.720;10.014;2022-07-12T05:29:35;9.75;;;8.45;;
38581;SDS011;24349;53.720;10.014;2022-07-12T05:32:00;10.48;;;7.18;;
38581;SDS011;24349;53.720;10.014;2022-07-12T05:34:26;9.13;;;7.00;;
38581;SDS011;24349;53.720;10.014;2022-07-12T05:36:52;10.77;;;8.10;;
38581;SDS011;24349;53.720;10.014;2022-07-12T05:39:19;10.73;;;7.55;;
38581;SDS011;24349;53.720;10.014;2022-07-12T05:41:44;9.60;;;7.20;;
38581;SDS011;24349;53.720;10.014;2022-07-12T05:44:11;9.27;;;7.85;;
38581;SDS011;24349;53.720;10.014;2022-07-12T05:46:37;10.23;;;7.85;;
38581;SDS011;24349;53.720;10.014;2022-07-12T05:49:04;10.07;;;6.43;;
38581;SDS011;24349;53.720;10.014;2022-07-12T05:51:30;9.57;;;7.75;;
38581;SDS011;24349;53.720;10.014;2022-07-12T05:54:14;11.23;;;8.73;;
38581;SDS011;24349;53.720;10.014;2022-07-12T05:56:40;8.38;;;6.68;;
38581;SDS011;24349;53.720;10.014;2022-07-12T05:59:05;9.50;;;7.65;;
38581;SDS011;24349;53.720;10.014;2022-07-12T06:01:31;8.98;;;7.25;;
38581;SDS011;24349;53.720;10.014;2022-07-12T06:03:56;10.00;;;6.88;;
38581;SDS011;24349;53.720;10.014;2022-07-12T06:06:22;8.27;;;5.80;;
38581;SDS011;24349;53.720;10.014;2022-07-12T06:08:48;9.38;;;7.10;;
38581;SDS011;24349;53.720;10.014;2022-07-12T06:11:13;7.93;;;5.78;;
38581;SDS011;24349;53.720;10.014;2022-07-12T06:13:39;7.13;;;5.18;;
38581;SDS011;24349;53.720;10.014;2022-07-12T06:16:05;7.68;;;5.00;;
38581;SDS011;24349;53.720;10.014;2022-07-12T06:18:31;9.07;;;7.15;;
38581;SDS011;24349;53.720;10.014;2022-07-12T06:20:59;6.30;;;4.22;;
38581;SDS011;24349;53.720;10.014;2022-07-12T06:23:25;6.72;;;4.65;;
38581;SDS011;24349;53.720;10.014;2022-07-12T06:25:50;5.78;;;4.22;;
38581;SDS011;24349;53.720;10.014;2022-07-12T06:28:16;8.82;;;4.45;;
38581;SDS011;24349;53.720;10.014;2022-07-12T06:30:42;4.93;;;3.47;;
38581;SDS011;24349;53.720;10.014;2022-07-12T06:33:07;6.65;;;4.10;;
38581;SDS011;24349;53.720;10.014;2022-07-12T06:35:33;5.63;;;3.60;;
38581;SDS011;24349;53.720;10.014;2022-07-12T06:37:59;5.75;;;3.58;;
38581;SDS011;24349;53.720;10.014;2022-07-12T06:40:25;6.03;;;3.90;;
38581;SDS011;24349;53.720;10.014;2022-07-12T06:42:50;6.00;;;3.38;;
38581;SDS011;24349;53.720;10.014;2022-07-12T06:45:17;5.43;;;3.70;;
38581;SDS011;24349;53.720;10.014;2022-07-12T06:47:43;6.40;;;3.78;;
38581;SDS011;24349;53.720;10.014;2022-07-12T06:50:09;5.68;;;3.40;;
38581;SDS011;24349;53.720;10.014;2022-07-12T06:52:34;4.53;;;2.80;;
38581;SDS011;24349;53.720;10.014;2022-07-12T06:55:01;5.10;;;3.00;;
38581;SDS011;24349;53.720;10.014;2022-07-12T06:57:27;5.50;;;2.78;;
38581;SDS011;24349;53.720;10.014;2022-07-12T06:59:55;4.80;;;2.80;;
38581;SDS011;24349;53.720;10.014;2022-07-12T07:02:21;7.10;;;3.67;;
38581;SDS011;24349;53.720;10.014;2022-07-12T07:04:47;5.90;;;2.83;;
38581;SDS011;24349;53.720;10.014;2022-07-12T07:07:13;4.70;;;2.78;;
38581;SDS011;24349;53.720;10.014;2022-07-12T07:09:39;5.60;;;3.17;;
38581;SDS011;24349;53.720;10.014;2022-07-12T07:12:05;4.65;;;2.70;;
38581;SDS011;24349;53.720;10.014;2022-07-12T07:14:30;4.15;;;2.33;;
38581;SDS011;24349;53.720;10.014;2022-07-12T07:16:56;4.80;;;2.88;;
38581;SDS011;24349;53.720;10.014;2022-07-12T07:19:22;5.85;;;3.13;;
38581;SDS011;24349;53.720;10.014;2022-07-12T07:21:50;5.03;;;2.85;;
38581;SDS011;24349;53.720;10.014;2022-07-12T07:24:16;5.38;;;2.45;;
38581;SDS011;24349;53.720;10.014;2022-07-12T07:26:41;4.45;;;2.42;;
38581;SDS011;24349;53.720;10.014;2022-07-12T07:29:07;4.15;;;2.45;;
38581;SDS011;24349;53.720;10.014;2022-07-12T07:31:51;6.82;;;3.70;;
38581;SDS011;24349;53.720;10.014;2022-07-12T07:34:17;5.53;;;2.80;;
38581;SDS011;24349;53.720;10.014;2022-07-12T07:36:42;5.90;;;2.97;;
38581;SDS011;24349;53.720;10.014;2022-07-12T07:39:08;5.85;;;3.20;;
38581;SDS011;24349;53.720;10.014;2022-07-12T07:41:34;5.93;;;2.95;;
38581;SDS011;24349;53.720;10.014;2022-07-12T07:44:00;6.22;;;3.15;;
38581;SDS011;24349;53.720;10.014;2022-07-12T07:46:27;6.18;;;3.97;;
38581;SDS011;24349;53.720;10.014;2022-07-12T07:48:53;7.47;;;3.60;;
38581;SDS011;24349;53.720;10.014;2022-07-12T07:51:19;5.15;;;3.80;;
38581;SDS011;24349;53.720;10.014;2022-07-12T07:53:44;5.90;;;3.75;;
38581;SDS011;24349;53.720;10.014;2022-07-12T07:56:10;6.07;;;3.85;;
38581;SDS011;24349;53.720;10.014;2022-07-12T07:58:36;5.43;;;3.40;;
38581;SDS011;24349;53.720;10.014;2022-07-12T08:01:01;5.22;;;3.28;;
38581;SDS011;24349;53.720;10.014;2022-07-12T08:03:27;4.97;;;2.80;;
38581;SDS011;24349;53.720;10.014;2022-07-12T08:05:53;4.43;;;2.42;;
38581;SDS011;24349;53.720;10.014;2022-07-12T08:08:22;5.25;;;3.15;;
38581;SDS011;24349;53.720;10.014;2022-07-12T08:10:49;4.90;;;2.70;;
38581;SDS011;24349;53.720;10.014;2022-07-12T08:13:15;4.80;;;2.35;;
38581;SDS011;24349;53.720;10.014;2022-07-12T08:15:41;5.25;;;2.83;;
38581;SDS011;24349;53.720;10.014;2022-07-12T08:18:07;5.07;;;2.58;;
38581;SDS011;24349;53.720;10.014;2022-07-12T08:20:33;4.53;;;2.47;;
38581;SDS011;24349;53.720;10.014;2022-07-12T08:22:58;5.50;;;2.83;;
38581;SDS011;24349;53.720;10.014;2022-07-12T08:25:24;4.95;;;3.10;;
38581;SDS011;24349;53.720;10.014;2022-07-12T08:27:50;4.85;;;3.35;;
38581;SDS011;24349;53.720;10.014;2022-07-12T08:30:16;6.82;;;2.65;;
38581;SDS011;24349;53.720;10.014;2022-07-12T08:32:44;5.80;;;3.20;;
38581;SDS011;24349;53.720;10.014;2022-07-12T08:35:11;4.60;;;2.47;;
38581;SDS011;24349;53.720;10.014;2022-07-12T08:37:37;3.78;;;2.05;;
38581;SDS011;24349;53.720;10.014;2022-07-12T08:40:03;4.60;;;2.25;;
38581;SDS011;24349;53.720;10.014;2022-07-12T08:42:30;4.10;;;2.00;;
38581;SDS011;24349;53.720;10.014;2022-07-12T08:44:57;3.70;;;1.60;;
38581;SDS011;24349;53.720;10.014;2022-07-12T08:47:23;4.15;;;2.03;;
38581;SDS011;24349;53.720;10.014;2022-07-12T08:52:41;4.10;;;2.08;;
38581;SDS011;24349;53.720;10.014;2022-07-12T08:57:43;3.88;;;1.90;;
38581;SDS011;24349;53.720;10.014;2022-07-12T09:00:09;3.70;;;1.80;;
38581;SDS011;24349;53.720;10.014;2022-07-12T09:05:19;3.72;;;1.75;;
38581;SDS011;24349;53.720;10.014;2022-07-12T09:07:46;3.55;;;1.75;;
38581;SDS011;24349;53.720;10.014;2022-07-12T09:10:13;4.65;;;1.90;;
38581;SDS011;24349;53.720;10.014;2022-07-12T09:12:39;4.22;;;1.80;;
38581;SDS011;24349;53.720;10.014;2022-07-12T09:15:13;4.75;;;1.90;;
38581;SDS011;24349;53.720;10.014;2022-07-12T09:17:39;4.82;;;1.90;;
38581;SDS011;24349;53.720;10.014;2022-07-12T09:20:08;3.83;;;1.70;;
38581;SDS011;24349;53.720;10.014;2022-07-12T09:22:35;3.30;;;1.60;;
38581;SDS011;24349;53.720;10.014;2022-07-12T09:25:15;3.95;;;2.00;;
38581;SDS011;24349;53.720;10.014;2022-07-12T09:27:50;4.43;;;1.98;;
38581;SDS011;24349;53.720;10.014;2022-07-12T09:30:26;3.53;;;1.75;;
38581;SDS011;24349;53.720;10.014;2022-07-12T09:35:41;4.28;;;1.77;;
38581;SDS011;24349;53.720;10.014;2022-07-12T09:38:26;3.00;;;1.60;;
38581;SDS011;24349;53.720;10.014;2022-07-12T09:40:54;4.00;;;1.90;;
38581;SDS011;24349;53.720;10.014;2022-07-12T09:43:21;3.30;;;1.42;;
38581;SDS011;24349;53.720;10.014;2022-07-12T09:45:48;3.72;;;1.50;;
38581;SDS011;24349;53.720;10.014;2022-07-12T09:48:15;5.10;;;1.83;;
38581;SDS011;24349;53.720;10.014;2022-07-12T09:50:42;4.20;;;2.30;;
38581;SDS011;24349;53.720;10.014;2022-07-12T09:53:11;3.47;;;1.83;;
38581;SDS011;24349;53.720;10.014;2022-07-12T09:55:50;4.60;;;1.70;;
38581;SDS011;24349;53.720;10.014;2022-07-12T09:58:19;3.85;;;1.75;;
38581;SDS011;24349;53.720;10.014;2022-07-12T10:00:48;3.63;;;1.45;;
38581;SDS011;24349;53.720;10.014;2022-07-12T10:03:17;4.03;;;1.52;;
38581;SDS011;24349;53.720;10.014;2022-07-12T10:05:45;3.80;;;1.83;;
38581;SDS011;24349;53.720;10.014;2022-07-12T10:08:12;4.40;;;1.70;;
38581;SDS011;24349;53.720;10.014;2022-07-12T10:10:38;3.80;;;1.60;;
38581;SDS011;24349;53.720;10.014;2022-07-12T10:13:05;3.50;;;1.90;;
38581;SDS011;24349;53.720;10.014;2022-07-12T10:15:32;3.88;;;1.80;;
38581;SDS011;24349;53.720;10.014;2022-07-12T10:17:59;3.40;;;1.67;;
38581;SDS011;24349;53.720;10.014;2022-07-12T10:20:26;3.92;;;1.80;;
38581;SDS011;24349;53.720;10.014;2022-07-12T10:22:53;3.40;;;1.75;;
38581;SDS011;24349;53.720;10.014;2022-07-12T10:25:59;3.90;;;2.00;;
38581;SDS011;24349;53.720;10.014;2022-07-12T10:31:19;3.38;;;1.70;;
38581;SDS011;24349;53.720;10.014;2022-07-12T10:33:58;3.30;;;1.45;;
38581;SDS011;24349;53.720;10.014;2022-07-12T10:36:51;3.03;;;1.48;;
38581;SDS011;24349;53.720;10.014;2022-07-12T10:47:00;4.82;;;1.52;;
38581;SDS011;24349;53.720;10.014;2022-07-12T10:49:28;3.10;;;1.50;;
38581;SDS011;24349;53.720;10.014;2022-07-12T10:54:39;4.28;;;1.20;;
38581;SDS011;24349;53.720;10.014;2022-07-12T10:57:07;3.70;;;1.38;;
38581;SDS011;24349;53.720;10.014;2022-07-12T10:59:33;4.45;;;1.40;;
38581;SDS011;24349;53.720;10.014;2022-07-12T11:02:01;3.17;;;1.23;;
38581;SDS011;24349;53.720;10.014;2022-07-12T11:04:27;3.80;;;1.42;;
38581;SDS011;24349;53.720;10.014;2022-07-12T11:06:53;4.45;;;1.40;;
38581;SDS011;24349;53.720;10.014;2022-07-12T11:09:24;3.17;;;1.40;;
38581;SDS011;24349;53.720;10.014;2022-07-12T11:11:50;3.40;;;1.40;;
38581;SDS011;24349;53.720;10.014;2022-07-12T11:14:29;2.72;;;1.30;;
38581;SDS011;24349;53.720;10.014;2022-07-12T11:16:57;4.20;;;1.52;;
38581;SDS011;24349;53.720;10.014;2022-07-12T11:19:25;4.72;;;1.70;;
38581;SDS011;24349;53.720;10.014;2022-07-12T11:21:52;3.00;;;1.40;;
38581;SDS011;24349;53.720;10.014;2022-07-12T11:24:23;4.13;;;1.40;;
38581;SDS011;24349;53.720;10.014;2022-07-12T11:26:53;3.92;;;1.45;;
38581;SDS011;24349;53.720;10.014;2022-07-12T11:29:19;2.75;;;1.40;;
38581;SDS011;24349;53.720;10.014;2022-07-12T11:31:45;4.05;;;1.63;;
38581;SDS011;24349;53.720;10.014;2022-07-12T11:34:24;3.60;;;1.67;;
38581;SDS011;24349;53.720;10.014;2022-07-12T11:36:51;2.90;;;1.50;;
38581;SDS011;24349;53.720;10.014;2022-07-12T11:39:29;2.67;;;1.40;;
38581;SDS011;24349;53.720;10.014;2022-07-12T11:42:05;3.35;;;1.40;;
38581;SDS011;24349;53.720;10.014;2022-07-12T11:44:44;2.58;;;1.20;;
38581;SDS011;24349;53.720;10.014;2022-07-12T11:47:12;2.17;;;1.10;;
38581;SDS011;24349;53.720;10.014;2022-07-12T11:49:43;2.35;;;1.20;;
38581;SDS011;24349;53.720;10.014;2022-07-12T11:52:16;3.08;;;1.30;;
38581;SDS011;24349;53.720;10.014;2022-07-12T11:54:47;3.40;;;1.20;;
38581;SDS011;24349;53.720;10.014;2022-07-12T11:57:14;3.10;;;1.40;;
38581;SDS011;24349;53.720;10.014;2022-07-12T11:59:40;2.97;;;1.35;;
38581;SDS011;24349;53.720;10.014;2022-07-12T12:02:07;2.55;;;1.20;;
38581;SDS011;24349;53.720;10.014;2022-07-12T12:04:45;2.17;;;1.10;;
38581;SDS011;24349;53.720;10.014;2022-07-12T12:07:11;3.22;;;1.50;;
38581;SDS011;24349;53.720;10.014;2022-07-12T12:10:23;3.47;;;1.30;;
38581;SDS011;24349;53.720;10.014;2022-07-12T12:13:03;3.10;;;1.58;;
38581;SDS011;24349;53.720;10.014;2022-07-12T12:15:23;3.97;;;1.70;;
38581;SDS011;24349;53.720;10.014;2022-07-12T12:20:29;4.13;;;1.70;;
38581;SDS011;24349;53.720;10.014;2022-07-12T12:22:57;3.65;;;1.60;;
38581;SDS011;24349;53.720;10.014;2022-07-12T12:25:25;6.30;;;2.10;;
38581;SDS011;24349;53.720;10.014;2022-07-12T12:28:01;3.60;;;1.80;;
38581;SDS011;24349;53.720;10.014;2022-07-12T12:30:29;3.00;;;1.55;;
38581;SDS011;24349;53.720;10.014;2022-07-12T12:33:02;3.63;;;1.63;;
38581;SDS011;24349;53.720;10.014;2022-07-12T12:35:32;4.28;;;1.45;;
38581;SDS011;24349;53.720;10.014;2022-07-12T12:38:11;3.10;;;1.50;;
38581;SDS011;24349;53.720;10.014;2022-07-12T12:40:38;3.45;;;1.40;;
38581;SDS011;24349;53.720;10.014;2022-07-12T12:43:09;3.30;;;1.20;;
38581;SDS011;24349;53.720;10.014;2022-07-12T12:45:49;3.20;;;1.60;;
38581;SDS011;24349;53.720;10.014;2022-07-12T12:48:19;2.65;;;1.40;;
38581;SDS011;24349;53.720;10.014;2022-07-12T12:50:47;3.90;;;1.88;;
38581;SDS011;24349;53.720;10.014;2022-07-12T12:55:47;4.47;;;1.50;;
38581;SDS011;24349;53.720;10.014;2022-07-12T12:58:17;3.38;;;1.40;;
38581;SDS011;24349;53.720;10.014;2022-07-12T13:00:45;3.33;;;1.20;;
38581;SDS011;24349;53.720;10.014;2022-07-12T13:03:12;4.05;;;1.55;;
38581;SDS011;24349;53.720;10.014;2022-07-12T13:05:40;3.33;;;1.60;;
38581;SDS011;24349;53.720;10.014;2022-07-12T13:08:07;2.92;;;1.40;;
38581;SDS011;24349;53.720;10.014;2022-07-12T13:10:34;5.47;;;1.63;;
38581;SDS011;24349;53.720;10.014;2022-07-12T13:13:04;3.88;;;1.52;;
38581;SDS011;24349;53.720;10.014;2022-07-12T13:15:30;3.25;;;1.45;;
38581;SDS011;24349;53.720;10.014;2022-07-12T13:17:57;5.30;;;1.35;;
38581;SDS011;24349;53.720;10.014;2022-07-12T13:20:26;2.92;;;1.45;;
38581;SDS011;24349;53.720;10.014;2022-07-12T13:22:52;2.97;;;1.40;;
38581;SDS011;24349;53.720;10.014;2022-07-12T13:25:18;2.50;;;1.40;;
38581;SDS011;24349;53.720;10.014;2022-07-12T13:27:44;5.70;;;1.80;;
38581;SDS011;24349;53.720;10.014;2022-07-12T13:30:11;3.08;;;1.55;;
38581;SDS011;24349;53.720;10.014;2022-07-12T13:32:38;3.63;;;1.92;;
38581;SDS011;24349;53.720;10.014;2022-07-12T13:35:04;3.45;;;1.63;;
38581;SDS011;24349;53.720;10.014;2022-07-12T13:37:32;2.72;;;1.45;;
38581;SDS011;24349;53.720;10.014;2022-07-12T13:39:58;3.38;;;1.60;;
38581;SDS011;24349;53.720;10.014;2022-07-12T13:42:36;3.55;;;1.55;;
38581;SDS011;24349;53.720;10.014;2022-07-12T13:45:03;5.13;;;1.60;;
38581;SDS011;24349;53.720;10.014;2022-07-12T13:47:29;3.53;;;1.60;;
38581;SDS011;24349;53.720;10.014;2022-07-12T13:49:56;3.58;;;1.30;;
38581;SDS011;24349;53.720;10.014;2022-07-12T13:52:21;3.25;;;1.35;;
38581;SDS011;24349;53.720;10.014;2022-07-12T13:54:47;3.90;;;1.20;;
38581;SDS011;24349;53.720;10.014;2022-07-12T13:57:13;2.80;;;1.40;;
38581;SDS011;24349;53.720;10.014;2022-07-12T13:59:38;2.97;;;1.30;;
38581;SDS011;24349;53.720;10.014;2022-07-12T14:02:04;3.05;;;1.40;;
38581;SDS011;24349;53.720;10.014;2022-07-12T14:04:30;3.67;;;1.30;;
38581;SDS011;24349;53.720;10.014;2022-07-12T14:06:56;3.00;;;1.40;;
38581;SDS011;24349;53.720;10.014;2022-07-12T14:09:23;2.55;;;1.20;;
38581;SDS011;24349;53.720;10.014;2022-07-12T14:11:49;2.15;;;1.20;;
38581;SDS011;24349;53.720;10.014;2022-07-12T14:14:14;7.88;;;1.42;;
38581;SDS011;24349;53.720;10.014;2022-07-12T14:16:41;2.28;;;1.10;;
38581;SDS011;24349;53.720;10.014;2022-07-12T14:19:07;4.38;;;1.23;;
38581;SDS011;24349;53.720;10.014;2022-07-12T14:21:32;2.38;;;1.30;;
38581;SDS011;24349;53.720;10.014;2022-07-12T14:23:58;2.72;;;1.25;;
38581;SDS011;24349;53.720;10.014;2022-07-12T14:26:27;2.28;;;1.20;;
38581;SDS011;24349;53.720;10.014;2022-07-12T14:28:53;1.50;;;0.90;;
38581;SDS011;24349;53.720;10.014;2022-07-12T14:31:19;3.20;;;1.40;;
38581;SDS011;24349;53.720;10.014;2022-07-12T14:33:44;1.30;;;0.95;;
38581;SDS011;24349;53.720;10.014;2022-07-12T14:36:10;1.70;;;1.00;;
38581;SDS011;24349;53.720;10.014;2022-07-12T14:38:36;3.92;;;1.40;;
38581;SDS011;24349;53.720;10.014;2022-07-12T14:41:02;2.33;;;1.00;;
38581;SDS011;24349;53.720;10.014;2022-07-12T14:43:28;2.40;;;1.20;;
38581;SDS011;24349;53.720;10.014;2022-07-12T14:45:54;2.72;;;1.10;;
38581;SDS011;24349;53.720;10.014;2022-07-12T14:48:20;2.80;;;1.10;;
38581;SDS011;24349;53.720;10.014;2022-07-12T14:50:46;2.58;;;1.00;;
38581;SDS011;24349;53.720;10.014;2022-07-12T14:53:12;2.58;;;1.20;;
38581;SDS011;24349;53.720;10.014;2022-07-12T14:55:38;1.98;;;1.02;;
38581;SDS011;24349;53.720;10.014;2022-07-12T14:58:05;2.30;;;1.08;;
38581;SDS011;24349;53.720;10.014;2022-07-12T15:00:34;3.33;;;1.15;;
38581;SDS011;24349;53.720;10.014;2022-07-12T15:03:02;3.20;;;1.10;;
38581;SDS011;24349;53.720;10.014;2022-07-12T15:05:28;2.17;;;1.00;;